Terminal Aerodrome Forecast
Issued by NWS

Home | Current Version | Previous Version | Text Only | Print | Product List | Glossary On
Versions: 1 2 3 4 5 6 7 8 9 10 11 12 13 14 15 16 17 18
000
FTUS46 KSEW 032347
TAFPAE
TAF
KPAE 032347Z 0400/0424 25008KT P6SM -SHRA BKN035 BKN060
     FM040200 34004KT P6SM BKN060
     FM040400 VRB04KT P6SM SCT060 BKN100
     FM040900 34006KT P6SM SCT020 BKN050
     FM041700 36008KT P6SM BKN080=

USA.gov is the U.S. government's official web portal to all federal, state and local government web resources and services.